createdAt,value
2023-07-16T00:00:39.757Z,8.79
2023-07-16T00:01:37.100Z,9.09
2023-07-16T00:02:34.538Z,8.45
2023-07-16T00:03:31.914Z,8.92
2023-07-16T00:04:29.277Z,9.14
2023-07-16T00:05:26.680Z,9.19
2023-07-16T00:06:24.104Z,8.66
2023-07-16T00:07:21.457Z,8.49
2023-07-16T00:08:18.875Z,8.27
2023-07-16T00:09:16.605Z,8.72
2023-07-16T00:10:14.024Z,8.36
2023-07-16T00:11:11.352Z,8.48
2023-07-16T00:12:09.809Z,8.55
2023-07-16T00:13:07.394Z,8.50
2023-07-16T00:14:04.779Z,8.44
2023-07-16T00:15:02.224Z,9.08
2023-07-16T00:15:59.674Z,8.21
2023-07-16T00:16:57.147Z,8.56
2023-07-16T00:17:56.091Z,8.58
2023-07-16T00:18:53.558Z,8.28
2023-07-16T00:19:50.869Z,8.01
2023-07-16T00:20:48.314Z,8.15
2023-07-16T00:21:45.691Z,8.44
2023-07-16T00:22:43.164Z,8.24
2023-07-16T00:23:40.648Z,8.00
2023-07-16T00:24:38.173Z,8.29
2023-07-16T00:25:36.416Z,8.36
2023-07-16T00:26:33.926Z,7.87
2023-07-16T00:27:31.290Z,8.74
2023-07-16T00:28:28.673Z,7.82
2023-07-16T00:29:26.096Z,8.37
2023-07-16T00:30:23.502Z,8.14
2023-07-16T00:31:21.014Z,7.92
2023-07-16T00:32:18.451Z,8.33
2023-07-16T00:33:15.802Z,8.06
2023-07-16T00:34:14.215Z,8.32
2023-07-16T00:35:11.721Z,8.13
2023-07-16T00:36:09.115Z,7.95
2023-07-16T00:37:06.452Z,8.48
2023-07-16T00:38:03.842Z,7.49
2023-07-16T00:39:01.225Z,8.32
2023-07-16T00:39:58.566Z,8.00
2023-07-16T00:40:55.996Z,8.13
2023-07-16T00:41:53.350Z,7.70
2023-07-16T00:42:50.659Z,8.08
2023-07-16T00:43:47.993Z,8.41
2023-07-16T00:44:45.375Z,8.16
2023-07-16T00:45:45.648Z,7.82
2023-07-16T00:46:43.094Z,8.20
2023-07-16T00:47:41.109Z,8.01
2023-07-16T00:48:38.667Z,7.81
2023-07-16T00:49:36.230Z,8.50
2023-07-16T00:50:35.303Z,8.16
2023-07-16T00:51:32.637Z,8.01
2023-07-16T00:52:30.469Z,7.99
2023-07-16T00:53:28.120Z,7.96
2023-07-16T00:54:25.644Z,8.02
2023-07-16T00:55:23.018Z,8.22
2023-07-16T00:56:20.757Z,7.98
2023-07-16T00:57:18.258Z,8.51
2023-07-16T00:58:15.561Z,8.03
2023-07-16T00:59:12.898Z,8.39
2023-07-16T01:00:11.192Z,8.41
2023-07-16T01:01:08.551Z,8.23
2023-07-16T01:02:06.589Z,8.26
2023-07-16T01:03:05.678Z,8.36
2023-07-16T01:04:03.180Z,8.69
2023-07-16T01:05:01.032Z,8.32
2023-07-16T01:06:19.054Z,8.29
2023-07-16T01:07:19.099Z,8.46
2023-07-16T01:08:21.830Z,8.02
2023-07-16T01:09:20.368Z,8.21
2023-07-16T01:10:18.848Z,7.96
2023-07-16T01:11:16.747Z,8.17
2023-07-16T01:12:14.821Z,8.14
2023-07-16T01:13:12.693Z,8.48
2023-07-16T01:14:10.958Z,7.67
2023-07-16T01:15:08.769Z,8.52
2023-07-16T01:16:06.335Z,8.06
2023-07-16T01:17:04.757Z,8.09
2023-07-16T01:18:02.213Z,8.51
2023-07-16T01:18:59.870Z,8.48
2023-07-16T01:19:57.307Z,8.16
2023-07-16T01:20:54.845Z,8.10
2023-07-16T01:22:04.465Z,8.58
2023-07-16T01:23:07.890Z,7.96
2023-07-16T01:24:11.093Z,8.01
2023-07-16T01:25:24.194Z,8.64
2023-07-16T01:26:46.537Z,8.00
2023-07-16T01:28:01.004Z,8.25
2023-07-16T01:29:07.408Z,8.38
2023-07-16T01:30:06.071Z,8.30
2023-07-16T01:31:03.528Z,8.53
2023-07-16T01:32:04.688Z,7.87
2023-07-16T01:33:04.981Z,8.39
2023-07-16T01:34:06.282Z,8.09
2023-07-16T01:35:04.386Z,8.37
2023-07-16T01:36:03.448Z,7.85
2023-07-16T01:37:04.406Z,8.09
2023-07-16T01:38:02.237Z,8.49
2023-07-16T01:39:00.173Z,8.15
2023-07-16T01:39:58.226Z,8.77
2023-07-16T01:40:55.679Z,8.38
2023-07-16T01:41:53.038Z,7.94
2023-07-16T01:42:50.399Z,7.96
2023-07-16T01:43:47.782Z,7.46
2023-07-16T01:44:45.156Z,7.66
2023-07-16T01:45:42.737Z,8.03
2023-07-16T01:46:40.167Z,7.91
2023-07-16T01:48:00.472Z,8.09
2023-07-16T01:48:57.843Z,8.24
2023-07-16T01:49:55.630Z,8.04
2023-07-16T01:50:53.011Z,8.42
2023-07-16T01:51:50.337Z,8.16
2023-07-16T01:52:47.689Z,7.86
2023-07-16T01:53:45.076Z,7.88
2023-07-16T01:54:42.497Z,8.46
2023-07-16T01:55:39.889Z,7.91
2023-07-16T01:56:37.294Z,8.04
2023-07-16T01:57:34.650Z,7.81
2023-07-16T01:58:32.121Z,7.87
2023-07-16T01:59:29.705Z,8.59
2023-07-16T02:00:27.170Z,8.03
2023-07-16T02:01:24.660Z,7.92
2023-07-16T02:02:24.282Z,7.88
2023-07-16T02:03:21.824Z,7.51
2023-07-16T02:04:19.332Z,8.09
2023-07-16T02:05:17.473Z,7.40
2023-07-16T02:06:15.828Z,7.74
2023-07-16T02:07:13.867Z,7.62
2023-07-16T02:08:11.254Z,7.75
2023-07-16T02:09:09.906Z,7.87
2023-07-16T02:10:07.498Z,8.01
2023-07-16T02:11:04.928Z,7.96
2023-07-16T02:12:02.349Z,7.89
2023-07-16T02:12:59.749Z,7.55
2023-07-16T02:13:57.137Z,7.34
2023-07-16T02:14:54.628Z,7.28
2023-07-16T02:15:52.092Z,7.36
2023-07-16T02:16:49.516Z,7.36
2023-07-16T02:17:46.976Z,7.90
2023-07-16T02:18:44.404Z,7.73
2023-07-16T02:19:41.769Z,7.34
2023-07-16T02:20:39.289Z,7.66
2023-07-16T02:21:36.706Z,7.85
2023-07-16T02:22:34.968Z,7.35
2023-07-16T02:23:32.418Z,7.44
2023-07-16T02:24:29.808Z,7.58
2023-07-16T02:25:27.261Z,7.15
2023-07-16T02:26:24.658Z,7.42
2023-07-16T02:27:22.016Z,7.92
2023-07-16T02:28:19.358Z,7.34
2023-07-16T02:29:16.751Z,7.71
2023-07-16T02:30:15.076Z,7.63
2023-07-16T02:31:12.514Z,7.30
2023-07-16T02:32:09.944Z,7.29
2023-07-16T02:33:07.291Z,7.20
2023-07-16T02:34:04.730Z,7.24
2023-07-16T02:35:04.312Z,7.44
2023-07-16T02:36:02.166Z,7.82
2023-07-16T02:36:59.708Z,7.25
2023-07-16T02:37:57.011Z,7.61
2023-07-16T02:38:54.381Z,7.29
2023-07-16T02:39:51.783Z,7.32
2023-07-16T02:40:49.418Z,7.58
2023-07-16T02:41:46.747Z,7.45
2023-07-16T02:42:44.204Z,7.12
2023-07-16T02:43:41.565Z,7.00
2023-07-16T02:44:43.011Z,6.99
2023-07-16T02:45:40.657Z,7.06
2023-07-16T02:46:38.128Z,7.23
2023-07-16T02:47:35.544Z,6.79
2023-07-16T02:48:32.912Z,6.88
2023-07-16T02:49:30.269Z,7.42
2023-07-16T02:50:27.695Z,6.93
2023-07-16T02:51:25.051Z,7.18
2023-07-16T02:52:22.426Z,7.23
2023-07-16T02:53:19.766Z,7.34
2023-07-16T02:54:17.164Z,7.22
2023-07-16T02:55:14.534Z,6.77
2023-07-16T02:56:11.879Z,7.08
2023-07-16T02:57:09.338Z,6.59
2023-07-16T02:58:06.753Z,7.01
2023-07-16T02:59:04.191Z,7.15
2023-07-16T03:00:01.551Z,7.27
2023-07-16T03:00:59.013Z,6.72
2023-07-16T03:01:56.658Z,7.01
2023-07-16T03:02:54.169Z,6.97
2023-07-16T03:03:51.838Z,7.19
2023-07-16T03:04:49.647Z,6.98
2023-07-16T03:05:47.029Z,6.94
2023-07-16T03:06:44.377Z,6.91
2023-07-16T03:07:41.779Z,7.11
2023-07-16T03:08:39.277Z,7.20
2023-07-16T03:09:36.743Z,6.88
2023-07-16T03:10:34.189Z,6.40
2023-07-16T03:11:31.570Z,6.96
2023-07-16T03:12:28.967Z,7.07
2023-07-16T03:13:26.430Z,6.96
2023-07-16T03:14:23.799Z,6.90
2023-07-16T03:15:21.184Z,7.07
2023-07-16T03:16:18.600Z,6.96
2023-07-16T03:17:16.397Z,7.14
2023-07-16T03:18:13.824Z,7.08
2023-07-16T03:19:11.236Z,6.62
2023-07-16T03:20:09.010Z,6.58
2023-07-16T03:21:06.363Z,6.74
2023-07-16T03:22:04.036Z,6.61
2023-07-16T03:23:01.389Z,7.00
2023-07-16T03:23:58.758Z,6.89
2023-07-16T03:24:56.120Z,6.56
2023-07-16T03:25:53.561Z,6.60
2023-07-16T03:26:52.412Z,6.22
2023-07-16T03:27:51.525Z,6.05
2023-07-16T03:28:48.882Z,6.34
2023-07-16T03:29:46.270Z,6.35
2023-07-16T03:30:50.466Z,6.33
2023-07-16T03:31:47.849Z,6.62
2023-07-16T03:32:52.693Z,6.59
2023-07-16T03:33:51.001Z,6.99
2023-07-16T03:34:48.377Z,7.02
2023-07-16T03:35:46.449Z,6.80
2023-07-16T03:36:44.039Z,6.51
2023-07-16T03:37:41.392Z,6.66
2023-07-16T03:38:38.788Z,6.73
2023-07-16T03:39:36.295Z,6.41
2023-07-16T03:40:33.678Z,6.52
2023-07-16T03:41:31.052Z,6.49
2023-07-16T03:42:28.466Z,6.81
2023-07-16T03:43:25.906Z,6.37
2023-07-16T03:44:23.232Z,6.34
2023-07-16T03:45:20.724Z,6.56
2023-07-16T03:46:18.490Z,6.77
2023-07-16T03:47:16.045Z,7.03
2023-07-16T03:48:13.547Z,6.65
2023-07-16T03:49:11.055Z,6.47
2023-07-16T03:50:08.758Z,6.42
2023-07-16T03:51:06.090Z,6.38
2023-07-16T03:52:03.528Z,6.41
2023-07-16T03:53:00.988Z,6.83
2023-07-16T03:53:58.324Z,6.62
2023-07-16T03:54:56.318Z,6.12
2023-07-16T03:55:53.695Z,6.40
2023-07-16T03:56:51.124Z,6.67
2023-07-16T03:57:48.527Z,6.71
2023-07-16T03:58:46.015Z,6.86
2023-07-16T03:59:43.556Z,6.60
2023-07-16T04:00:42.650Z,6.62
2023-07-16T04:01:40.164Z,6.46
2023-07-16T04:02:37.710Z,6.32
2023-07-16T04:03:35.238Z,6.52
2023-07-16T04:04:32.785Z,6.48
2023-07-16T04:05:30.143Z,6.24
2023-07-16T04:06:27.541Z,6.61
2023-07-16T04:07:24.877Z,6.52
2023-07-16T04:08:22.271Z,6.53
2023-07-16T04:09:19.629Z,6.19
2023-07-16T04:10:17.029Z,6.64
2023-07-16T04:11:14.473Z,6.62
2023-07-16T04:12:11.854Z,6.79
2023-07-16T04:13:10.596Z,6.49
2023-07-16T04:14:10.044Z,6.81
2023-07-16T04:15:10.143Z,6.49
2023-07-16T04:16:08.306Z,6.40
2023-07-16T04:17:06.344Z,6.85
2023-07-16T04:18:05.146Z,6.19
2023-07-16T04:19:02.767Z,6.40
2023-07-16T04:20:00.176Z,6.49
2023-07-16T04:20:57.628Z,6.94
2023-07-16T04:21:54.976Z,6.26
2023-07-16T04:22:52.354Z,6.67
2023-07-16T04:23:49.746Z,6.81
2023-07-16T04:24:47.135Z,6.43
2023-07-16T04:25:44.994Z,6.33
2023-07-16T04:26:42.427Z,6.68
2023-07-16T04:27:42.037Z,6.71
2023-07-16T04:28:40.550Z,6.84
2023-07-16T04:29:37.926Z,7.02
2023-07-16T04:30:35.372Z,6.65
2023-07-16T04:31:32.886Z,6.68
2023-07-16T04:32:30.353Z,6.59
2023-07-16T04:33:27.755Z,6.36
2023-07-16T04:34:25.107Z,6.68
2023-07-16T04:35:22.579Z,6.88
2023-07-16T04:36:19.982Z,6.85
2023-07-16T04:37:17.548Z,6.46
2023-07-16T04:38:14.974Z,6.51
2023-07-16T04:39:12.515Z,6.51
2023-07-16T04:40:10.219Z,6.58
2023-07-16T04:41:07.618Z,6.58
2023-07-16T04:42:05.555Z,6.92
2023-07-16T04:43:02.927Z,6.24
2023-07-16T04:44:00.344Z,6.76
2023-07-16T04:44:57.720Z,6.68
2023-07-16T04:45:55.075Z,6.11
2023-07-16T04:46:52.544Z,6.17
2023-07-16T04:47:49.941Z,6.18
2023-07-16T04:48:47.382Z,6.45
2023-07-16T04:49:44.718Z,6.46
2023-07-16T04:50:42.168Z,6.48
2023-07-16T04:51:39.559Z,6.63
2023-07-16T04:52:37.018Z,6.44
2023-07-16T04:53:34.368Z,6.43
2023-07-16T04:54:35.888Z,6.20
2023-07-16T04:55:43.076Z,6.38
2023-07-16T04:56:40.481Z,6.47
2023-07-16T04:57:37.837Z,6.16
2023-07-16T04:58:35.212Z,6.36
2023-07-16T04:59:32.631Z,6.64
2023-07-16T05:00:29.996Z,6.74
2023-07-16T05:01:28.237Z,6.68
2023-07-16T05:02:25.763Z,6.49
2023-07-16T05:03:23.104Z,6.62
2023-07-16T05:04:20.511Z,6.38
2023-07-16T05:05:17.852Z,6.47
2023-07-16T05:06:15.469Z,6.29
2023-07-16T05:07:12.945Z,6.80
2023-07-16T05:08:10.319Z,6.54
2023-07-16T05:09:07.635Z,6.34
2023-07-16T05:10:05.212Z,5.99
2023-07-16T05:11:02.723Z,6.18
2023-07-16T05:12:00.083Z,6.41
2023-07-16T05:12:57.519Z,6.34
2023-07-16T05:13:55.011Z,6.59
2023-07-16T05:14:52.634Z,6.30
2023-07-16T05:15:50.119Z,6.08
2023-07-16T05:16:47.666Z,6.47
2023-07-16T05:17:45.238Z,6.33
2023-07-16T05:18:42.670Z,5.95
2023-07-16T05:19:41.813Z,7.00
2023-07-16T05:20:40.376Z,6.88
2023-07-16T05:21:37.727Z,6.15
2023-07-16T05:22:35.203Z,6.36
2023-07-16T05:23:32.614Z,6.15
2023-07-16T05:24:30.043Z,6.14
2023-07-16T05:25:29.443Z,6.05
2023-07-16T05:26:28.165Z,8.38
2023-07-16T05:27:25.568Z,7.00
2023-07-16T05:28:23.014Z,6.12
2023-07-16T05:29:20.416Z,6.08
2023-07-16T05:30:17.866Z,5.93
2023-07-16T05:31:15.272Z,6.28
2023-07-16T05:32:12.934Z,5.87
2023-07-16T05:33:11.376Z,5.57
2023-07-16T05:34:10.103Z,6.64
2023-07-16T05:35:07.655Z,6.34
2023-07-16T05:36:05.176Z,6.47
2023-07-16T05:37:02.560Z,6.11
2023-07-16T05:37:59.911Z,6.10
2023-07-16T05:38:57.358Z,6.50
2023-07-16T05:39:54.745Z,6.01
2023-07-16T05:40:52.200Z,5.96
2023-07-16T05:41:49.865Z,6.12
2023-07-16T05:42:47.246Z,5.66
2023-07-16T05:43:44.571Z,6.19
2023-07-16T05:44:42.794Z,6.03
2023-07-16T05:45:40.188Z,6.18
2023-07-16T05:46:37.599Z,6.35
2023-07-16T05:47:35.173Z,6.03
2023-07-16T05:48:32.855Z,6.16
2023-07-16T05:49:30.548Z,6.64
2023-07-16T05:50:27.888Z,6.58
2023-07-16T05:51:25.299Z,6.54
2023-07-16T05:52:22.860Z,6.32
2023-07-16T05:53:20.390Z,5.94
2023-07-16T05:54:17.823Z,6.28
2023-07-16T05:55:15.766Z,6.43
2023-07-16T05:56:13.507Z,5.92
2023-07-16T05:57:11.022Z,6.40
2023-07-16T05:58:11.186Z,6.12
2023-07-16T05:59:08.592Z,6.40
2023-07-16T06:00:06.433Z,6.68
2023-07-16T06:01:03.958Z,6.73
2023-07-16T06:02:01.544Z,6.33
2023-07-16T06:02:59.189Z,6.23
2023-07-16T06:03:56.807Z,6.43
2023-07-16T06:04:54.189Z,6.69
2023-07-16T06:05:51.576Z,6.39
2023-07-16T06:06:51.764Z,6.48
2023-07-16T06:07:50.331Z,6.48
2023-07-16T06:08:47.785Z,6.23
2023-07-16T06:09:45.091Z,6.59
2023-07-16T06:10:42.564Z,6.74
2023-07-16T06:11:40.006Z,6.35
2023-07-16T06:12:37.449Z,6.48
2023-07-16T06:13:34.814Z,6.56
2023-07-16T06:14:32.253Z,6.49
2023-07-16T06:15:29.740Z,6.78
2023-07-16T06:16:27.138Z,6.42
2023-07-16T06:17:24.619Z,6.81
2023-07-16T06:18:22.250Z,7.08
2023-07-16T06:19:19.633Z,6.99
2023-07-16T06:20:17.092Z,7.16
2023-07-16T06:21:14.524Z,7.40
2023-07-16T06:22:11.906Z,6.51
2023-07-16T06:23:09.430Z,6.99
2023-07-16T06:24:07.294Z,6.58
2023-07-16T06:25:05.909Z,6.66
2023-07-16T06:26:04.053Z,7.10
2023-07-16T06:27:01.584Z,7.37
2023-07-16T06:27:58.940Z,6.75
2023-07-16T06:28:56.276Z,7.02
2023-07-16T06:29:53.692Z,6.55
2023-07-16T06:30:53.278Z,6.83
2023-07-16T06:32:00.438Z,6.90
2023-07-16T06:32:57.892Z,7.07
2023-07-16T06:33:55.291Z,7.24
2023-07-16T06:34:52.669Z,6.60
2023-07-16T06:35:50.075Z,6.90
2023-07-16T06:36:47.416Z,6.96
2023-07-16T06:37:44.854Z,6.71
2023-07-16T06:38:42.852Z,6.88
2023-07-16T06:39:40.264Z,6.98
2023-07-16T06:40:37.662Z,7.13
2023-07-16T06:41:35.087Z,6.94
2023-07-16T06:42:32.433Z,6.76
2023-07-16T06:43:29.903Z,6.95
2023-07-16T06:44:27.336Z,7.28
2023-07-16T06:45:25.071Z,6.91
2023-07-16T06:46:22.553Z,6.32
2023-07-16T06:47:20.013Z,6.64
2023-07-16T06:48:17.801Z,7.21
2023-07-16T06:49:15.215Z,6.77
2023-07-16T06:50:12.646Z,7.40
2023-07-16T06:51:09.993Z,6.93
2023-07-16T06:52:07.557Z,6.36
2023-07-16T06:53:04.983Z,6.74
2023-07-16T06:54:02.468Z,7.20
2023-07-16T06:54:59.863Z,7.00
2023-07-16T06:55:57.321Z,6.94
2023-07-16T06:56:54.674Z,7.07
2023-07-16T06:57:52.014Z,7.13
2023-07-16T06:58:49.424Z,6.92
2023-07-16T06:59:46.788Z,7.04
2023-07-16T07:00:44.460Z,6.87
2023-07-16T07:01:41.971Z,6.68
2023-07-16T07:02:39.478Z,6.87
2023-07-16T07:03:36.981Z,6.78
2023-07-16T07:04:34.433Z,6.81
2023-07-16T07:05:31.867Z,6.88
2023-07-16T07:06:29.266Z,6.86
2023-07-16T07:07:26.590Z,7.30
2023-07-16T07:08:23.990Z,6.99
2023-07-16T07:09:21.370Z,6.58
2023-07-16T07:10:18.831Z,6.93
2023-07-16T07:11:16.215Z,6.82
2023-07-16T07:12:13.615Z,7.04
2023-07-16T07:13:10.980Z,6.68
2023-07-16T07:14:10.842Z,6.38
2023-07-16T07:15:09.996Z,7.03
2023-07-16T07:16:07.519Z,7.03
2023-07-16T07:17:06.039Z,6.45
2023-07-16T07:18:03.577Z,6.50
2023-07-16T07:19:01.048Z,6.80
2023-07-16T07:19:58.556Z,6.31
2023-07-16T07:20:55.914Z,6.33
2023-07-16T07:21:53.296Z,6.20
2023-07-16T07:22:50.756Z,6.90
2023-07-16T07:23:48.150Z,7.05
2023-07-16T07:24:45.705Z,6.22
2023-07-16T07:25:43.230Z,6.76
2023-07-16T07:26:40.703Z,7.01
2023-07-16T07:27:38.108Z,6.50
2023-07-16T07:28:35.464Z,6.49
2023-07-16T07:29:32.772Z,6.82
2023-07-16T07:30:30.181Z,6.33
2023-07-16T07:31:27.578Z,5.97
2023-07-16T07:32:25.027Z,6.45
2023-07-16T07:33:22.408Z,6.44
2023-07-16T07:34:20.029Z,7.23
2023-07-16T07:35:17.486Z,6.83
2023-07-16T07:36:15.075Z,6.71
2023-07-16T07:37:12.912Z,7.01
2023-07-16T07:38:10.265Z,6.51
2023-07-16T07:39:10.123Z,6.55
2023-07-16T07:40:08.862Z,6.52
2023-07-16T07:41:07.095Z,6.84
2023-07-16T07:42:04.746Z,6.87
2023-07-16T07:43:02.238Z,7.15
2023-07-16T07:43:59.697Z,6.98
2023-07-16T07:44:57.049Z,7.36
2023-07-16T07:45:54.484Z,6.93
2023-07-16T07:46:51.872Z,7.47
2023-07-16T07:47:49.968Z,6.79
2023-07-16T07:48:47.353Z,6.89
2023-07-16T07:49:44.714Z,7.19
2023-07-16T07:50:42.056Z,7.37
2023-07-16T07:51:39.411Z,6.88
2023-07-16T07:52:36.926Z,6.86
2023-07-16T07:53:34.619Z,7.09
2023-07-16T07:54:33.880Z,7.02
2023-07-16T07:55:31.325Z,7.20
2023-07-16T07:56:28.718Z,6.95
2023-07-16T07:57:26.127Z,6.73
2023-07-16T07:58:24.290Z,6.96
2023-07-16T07:59:21.696Z,6.54
2023-07-16T08:00:19.224Z,6.80
2023-07-16T08:01:16.619Z,6.88
2023-07-16T08:02:14.057Z,7.42
2023-07-16T08:03:11.689Z,7.06
2023-07-16T08:04:10.837Z,7.63
2023-07-16T08:05:09.651Z,7.79
2023-07-16T08:06:07.171Z,7.49
2023-07-16T08:07:04.716Z,7.72
2023-07-16T08:08:02.096Z,7.34
2023-07-16T08:08:59.425Z,7.49
2023-07-16T08:09:56.785Z,7.22
2023-07-16T08:10:54.602Z,7.35
2023-07-16T08:11:51.947Z,7.54
2023-07-16T08:12:49.389Z,7.78
2023-07-16T08:13:46.751Z,7.44
2023-07-16T08:14:44.158Z,8.00
2023-07-16T08:15:41.489Z,26.03
2023-07-16T08:16:38.910Z,8.84
2023-07-16T08:17:36.419Z,11.83
2023-07-16T08:18:34.097Z,8.05
2023-07-16T08:19:31.730Z,7.74
2023-07-16T08:20:29.139Z,7.58
2023-07-16T08:21:26.538Z,8.22
2023-07-16T08:22:25.152Z,8.35
2023-07-16T08:23:23.588Z,8.26
2023-07-16T08:24:21.097Z,7.70
2023-07-16T08:25:18.536Z,8.40
2023-07-16T08:26:16.218Z,8.28
2023-07-16T08:27:13.915Z,7.97
2023-07-16T08:28:14.074Z,8.48
2023-07-16T08:29:11.508Z,8.53
2023-07-16T08:30:09.149Z,7.82
2023-07-16T08:31:06.579Z,8.34
2023-07-16T08:32:04.447Z,8.37
2023-07-16T08:33:01.872Z,8.43
2023-07-16T08:34:00.436Z,8.21
2023-07-16T08:34:59.787Z,8.07
2023-07-16T08:35:57.169Z,7.83
2023-07-16T08:36:54.542Z,7.81
2023-07-16T08:37:51.927Z,7.33
2023-07-16T08:38:49.320Z,8.23
2023-07-16T08:39:46.854Z,7.96
2023-07-16T08:40:48.169Z,8.77
2023-07-16T08:41:45.880Z,8.32
2023-07-16T08:42:46.038Z,8.24
2023-07-16T08:43:44.215Z,8.33
2023-07-16T08:44:41.895Z,22.55
2023-07-16T08:45:43.793Z,24.02
2023-07-16T08:46:41.249Z,9.20
2023-07-16T08:47:38.823Z,8.55
2023-07-16T08:48:36.385Z,8.36
2023-07-16T08:49:35.157Z,8.08
2023-07-16T08:50:34.978Z,8.53
2023-07-16T08:51:32.718Z,8.33
2023-07-16T08:52:30.534Z,8.71
2023-07-16T08:53:28.018Z,8.82
2023-07-16T08:54:26.945Z,9.12
2023-07-16T08:55:24.336Z,8.90
2023-07-16T08:56:22.118Z,8.82
2023-07-16T08:57:21.067Z,8.06
2023-07-16T08:58:18.916Z,8.80
2023-07-16T08:59:16.419Z,9.07
2023-07-16T09:00:15.861Z,8.68
2023-07-16T09:01:14.601Z,8.91
2023-07-16T09:02:13.206Z,8.54
2023-07-16T09:03:13.647Z,8.99
2023-07-16T09:04:11.139Z,9.06
2023-07-16T09:05:13.826Z,8.83
2023-07-16T09:06:18.903Z,8.80
2023-07-16T09:07:16.914Z,8.51
2023-07-16T09:08:15.071Z,8.61
2023-07-16T09:09:23.445Z,9.05
2023-07-16T09:10:20.919Z,8.91
2023-07-16T09:11:22.353Z,9.29
2023-07-16T09:12:19.833Z,9.26
2023-07-16T09:13:19.448Z,8.93
2023-07-16T09:14:20.307Z,9.24
2023-07-16T09:15:19.964Z,9.12
2023-07-16T09:16:21.847Z,8.57
2023-07-16T09:17:23.230Z,9.03
2023-07-16T09:18:22.065Z,8.91
2023-07-16T09:19:20.203Z,9.14
2023-07-16T09:20:18.212Z,9.56
2023-07-16T09:21:15.596Z,9.42
2023-07-16T09:22:13.139Z,9.40
2023-07-16T09:23:10.596Z,9.90
2023-07-16T09:24:09.293Z,9.77
2023-07-16T09:25:06.760Z,9.57
2023-07-16T09:26:04.697Z,9.97
2023-07-16T09:27:02.989Z,9.69
2023-07-16T09:28:03.695Z,9.14
2023-07-16T09:29:01.028Z,8.72
2023-07-16T09:30:00.272Z,9.18
2023-07-16T09:31:04.320Z,9.40
2023-07-16T09:32:06.163Z,9.80
2023-07-16T09:33:17.033Z,9.12
2023-07-16T09:34:14.384Z,9.24
2023-07-16T09:35:12.622Z,8.86
2023-07-16T09:36:09.959Z,9.65
2023-07-16T09:37:07.751Z,9.18
2023-07-16T09:38:05.363Z,9.46
2023-07-16T09:39:02.935Z,9.06
2023-07-16T09:40:00.561Z,8.98
2023-07-16T09:40:58.382Z,9.90
2023-07-16T09:41:58.379Z,9.76
2023-07-16T09:42:56.794Z,10.07
2023-07-16T09:43:54.124Z,9.84
2023-07-16T09:44:54.932Z,10.00
2023-07-16T09:45:52.481Z,10.04
2023-07-16T09:46:49.989Z,9.89
2023-07-16T09:47:48.255Z,10.17
2023-07-16T09:48:45.720Z,10.03
2023-07-16T09:49:44.811Z,9.86
2023-07-16T09:50:50.352Z,9.99
2023-07-16T09:51:49.192Z,9.95
2023-07-16T09:52:48.338Z,9.66
2023-07-16T09:53:47.751Z,10.09
2023-07-16T09:54:46.420Z,9.82
2023-07-16T09:55:44.041Z,9.88
2023-07-16T09:56:44.965Z,10.63
2023-07-16T09:57:43.635Z,10.70
2023-07-16T09:58:41.412Z,10.31
2023-07-16T09:59:39.403Z,10.23
2023-07-16T10:00:38.462Z,10.52
2023-07-16T10:01:40.169Z,10.27
2023-07-16T10:02:38.127Z,10.40
2023-07-16T10:03:35.619Z,9.85
2023-07-16T10:04:43.209Z,10.20
2023-07-16T10:05:40.690Z,10.06
2023-07-16T10:06:38.142Z,10.04
2023-07-16T10:07:38.610Z,10.05
2023-07-16T10:08:36.168Z,9.78
2023-07-16T10:09:37.959Z,9.54
2023-07-16T10:10:41.607Z,10.00
2023-07-16T10:11:39.039Z,10.31
2023-07-16T10:12:37.163Z,9.96
2023-07-16T10:13:35.414Z,9.13
2023-07-16T10:14:33.144Z,10.43
2023-07-16T10:15:30.754Z,9.89
2023-07-16T10:16:30.651Z,10.74
2023-07-16T10:17:28.414Z,10.15
2023-07-16T10:18:33.458Z,9.11
2023-07-16T10:19:31.686Z,10.10
2023-07-16T10:20:37.292Z,10.67
2023-07-16T10:21:39.543Z,10.52
2023-07-16T10:22:39.846Z,10.29
2023-07-16T10:23:38.018Z,10.34
2023-07-16T10:24:39.693Z,10.63
2023-07-16T10:25:37.076Z,10.49
2023-07-16T10:26:36.975Z,10.62
2023-07-16T10:27:35.423Z,10.34
2023-07-16T10:28:33.320Z,10.61
2023-07-16T10:29:30.717Z,10.84
2023-07-16T10:30:28.144Z,10.89
2023-07-16T10:31:26.329Z,11.48
2023-07-16T10:32:28.020Z,11.06
2023-07-16T10:33:25.531Z,10.77
2023-07-16T10:34:24.157Z,11.54
2023-07-16T10:35:21.665Z,11.16
2023-07-16T10:36:21.330Z,10.49
2023-07-16T10:37:19.208Z,10.65
2023-07-16T10:38:17.784Z,11.00
2023-07-16T10:39:16.605Z,10.63
2023-07-16T10:40:15.167Z,10.80
2023-07-16T10:41:12.683Z,10.17
2023-07-16T10:42:10.805Z,10.78
2023-07-16T10:43:08.312Z,10.54
2023-07-16T10:44:05.743Z,10.98
2023-07-16T10:45:05.779Z,10.96
2023-07-16T10:46:03.965Z,11.37
2023-07-16T10:47:01.439Z,11.27
2023-07-16T10:47:58.871Z,11.30
2023-07-16T10:48:56.286Z,11.38
2023-07-16T10:49:53.963Z,11.45
2023-07-16T10:50:54.533Z,11.40
2023-07-16T10:51:51.869Z,11.23
2023-07-16T10:52:56.098Z,10.85
2023-07-16T10:53:56.377Z,10.92
2023-07-16T10:54:58.766Z,11.43
2023-07-16T10:55:56.235Z,11.33
2023-07-16T10:56:53.812Z,11.51
2023-07-16T10:57:51.791Z,10.89
2023-07-16T10:58:49.749Z,11.10
2023-07-16T10:59:47.265Z,11.48
2023-07-16T11:00:45.814Z,11.04
2023-07-16T11:01:43.988Z,11.49
2023-07-16T11:02:42.029Z,11.54
2023-07-16T11:03:39.724Z,10.49
2023-07-16T11:04:37.331Z,10.90
2023-07-16T11:05:34.780Z,11.21
2023-07-16T11:06:32.194Z,11.38
2023-07-16T11:07:29.769Z,11.87
2023-07-16T11:08:27.295Z,10.54
2023-07-16T11:09:24.709Z,10.50
2023-07-16T11:10:22.136Z,11.58
2023-07-16T11:11:28.743Z,10.91
2023-07-16T11:12:26.143Z,10.50
2023-07-16T11:13:27.275Z,10.93
2023-07-16T11:14:24.615Z,11.34
2023-07-16T11:15:32.429Z,11.38
2023-07-16T11:16:34.036Z,11.82
2023-07-16T11:17:31.869Z,11.93
2023-07-16T11:18:29.334Z,11.95
2023-07-16T11:19:27.070Z,12.40
2023-07-16T11:20:24.601Z,11.73
2023-07-16T11:21:22.117Z,12.22
2023-07-16T11:22:19.923Z,11.85
2023-07-16T11:23:17.719Z,11.89
2023-07-16T11:24:16.411Z,11.41
2023-07-16T11:25:14.241Z,11.89
2023-07-16T11:26:11.596Z,11.91
2023-07-16T11:27:16.332Z,11.49
2023-07-16T11:28:13.684Z,11.01
2023-07-16T11:29:15.313Z,11.76
2023-07-16T11:30:12.720Z,11.42
2023-07-16T11:31:17.147Z,11.59
2023-07-16T11:32:15.763Z,11.33
2023-07-16T11:33:13.632Z,11.20
2023-07-16T11:34:14.733Z,11.42
2023-07-16T11:35:16.472Z,11.32
2023-07-16T11:36:14.818Z,11.37
2023-07-16T11:37:12.622Z,11.19
2023-07-16T11:38:10.170Z,11.28
2023-07-16T11:39:07.590Z,10.71
2023-07-16T11:40:06.579Z,11.13
2023-07-16T11:41:04.178Z,11.00
2023-07-16T11:42:02.980Z,11.26
2023-07-16T11:43:08.291Z,10.98
2023-07-16T11:44:08.562Z,10.49
2023-07-16T11:45:15.569Z,10.68
2023-07-16T11:46:17.916Z,10.38
2023-07-16T11:47:15.946Z,9.86
2023-07-16T11:48:13.385Z,10.23
2023-07-16T11:49:10.787Z,10.20
2023-07-16T11:50:08.548Z,10.74
2023-07-16T11:51:05.961Z,10.51
2023-07-16T11:52:03.912Z,10.62
2023-07-16T11:53:02.707Z,10.97
2023-07-16T11:54:00.170Z,11.01
2023-07-16T11:55:01.031Z,10.51
2023-07-16T11:55:58.460Z,9.96
2023-07-16T11:56:55.829Z,10.36
2023-07-16T11:57:53.327Z,10.02
2023-07-16T11:58:51.027Z,9.88
2023-07-16T11:59:48.457Z,9.25
2023-07-16T12:00:45.868Z,8.85
2023-07-16T12:01:43.216Z,8.40
2023-07-16T12:02:40.632Z,9.05
2023-07-16T12:03:38.059Z,9.05
2023-07-16T12:04:35.540Z,9.18
2023-07-16T12:05:50.379Z,8.81
2023-07-16T12:06:49.409Z,8.67
2023-07-16T12:07:46.797Z,8.87
2023-07-16T12:08:44.165Z,8.84
2023-07-16T12:09:41.933Z,9.49
2023-07-16T12:10:39.293Z,8.80
2023-07-16T12:11:39.054Z,9.19
2023-07-16T12:12:39.644Z,9.43
2023-07-16T12:13:37.257Z,9.39
2023-07-16T12:14:34.693Z,9.92
2023-07-16T12:15:32.145Z,9.72
2023-07-16T12:16:29.586Z,10.02
2023-07-16T12:17:27.073Z,9.67
2023-07-16T12:18:24.592Z,9.48
2023-07-16T12:19:22.116Z,9.44
2023-07-16T12:20:19.530Z,9.58
2023-07-16T12:21:16.880Z,9.54
2023-07-16T12:22:17.838Z,9.94
2023-07-16T12:23:15.222Z,9.81
2023-07-16T12:24:12.762Z,9.96
2023-07-16T12:25:10.121Z,9.40
2023-07-16T12:26:09.987Z,9.92
2023-07-16T12:27:07.466Z,9.77
2023-07-16T12:28:04.995Z,10.19
2023-07-16T12:29:05.052Z,10.94
2023-07-16T12:30:02.859Z,9.88
2023-07-16T12:31:00.244Z,10.65
2023-07-16T12:31:57.711Z,10.50
2023-07-16T12:32:55.172Z,10.45
2023-07-16T12:33:54.433Z,9.98
2023-07-16T12:34:52.021Z,10.22
2023-07-16T12:35:49.466Z,10.90
2023-07-16T12:36:46.932Z,10.90
2023-07-16T12:37:44.354Z,9.93
2023-07-16T12:38:42.063Z,9.92
2023-07-16T12:39:39.499Z,10.01
2023-07-16T12:40:40.736Z,10.45
2023-07-16T12:41:38.184Z,10.55
2023-07-16T12:42:35.725Z,10.56
2023-07-16T12:43:36.864Z,10.53
2023-07-16T12:44:34.404Z,10.41
2023-07-16T12:45:31.773Z,10.37
2023-07-16T12:46:29.252Z,10.29
2023-07-16T12:47:26.876Z,10.26
2023-07-16T12:48:24.311Z,9.98
2023-07-16T12:49:21.686Z,11.08
2023-07-16T12:50:19.461Z,10.78
2023-07-16T12:51:18.220Z,10.18